createdAt,value
2019-05-18T00:02:06.649Z,99.99
2019-05-18T00:04:35.481Z,100.00
2019-05-18T00:07:05.950Z,100.00
2019-05-18T00:09:37.600Z,100.00
2019-05-18T00:12:09.238Z,99.94
2019-05-18T00:14:37.917Z,99.75
2019-05-18T00:17:09.489Z,99.87
2019-05-18T00:19:37.084Z,99.94
2019-05-18T00:22:05.913Z,100.00
2019-05-18T00:24:37.201Z,100.00
2019-05-18T00:27:26.508Z,100.00
2019-05-18T00:29:55.235Z,100.00
2019-05-18T00:32:24.238Z,100.00
2019-05-18T00:34:53.006Z,100.00
2019-05-18T00:37:21.674Z,100.00
2019-05-18T00:39:50.464Z,100.00
2019-05-18T00:42:19.173Z,100.00
2019-05-18T00:44:47.885Z,100.00
2019-05-18T00:47:16.597Z,100.00
2019-05-18T00:49:45.420Z,100.00
2019-05-18T00:52:14.154Z,100.00
2019-05-18T00:54:42.861Z,100.00
2019-05-18T00:57:11.593Z,100.00
2019-05-18T00:59:40.633Z,100.00
2019-05-18T01:02:09.301Z,100.00
2019-05-18T01:04:37.997Z,100.00
2019-05-18T01:07:06.718Z,100.00
2019-05-18T01:09:38.733Z,100.00
2019-05-18T01:12:07.459Z,100.00
2019-05-18T01:14:38.845Z,100.00
2019-05-18T01:17:07.557Z,100.00
2019-05-18T01:19:39.241Z,100.00
2019-05-18T01:22:07.960Z,100.00
2019-05-18T01:24:36.666Z,100.00
2019-05-18T01:27:05.798Z,100.00
2019-05-18T01:29:37.171Z,100.00
2019-05-18T01:32:06.006Z,100.00
2019-05-18T01:34:38.226Z,100.00
2019-05-18T01:37:06.953Z,100.00
2019-05-18T01:39:35.710Z,100.00
2019-05-18T01:42:04.584Z,100.00
2019-05-18T01:44:33.904Z,100.00
2019-05-18T01:47:02.614Z,100.00
2019-05-18T01:49:31.338Z,100.00
2019-05-18T01:52:00.252Z,100.00
2019-05-18T01:54:28.966Z,100.00
2019-05-18T01:56:58.086Z,100.00
2019-05-18T01:59:26.797Z,100.00
2019-05-18T02:01:55.512Z,100.00
2019-05-18T02:04:24.225Z,100.00
2019-05-18T02:06:52.936Z,100.00
2019-05-18T02:09:21.590Z,100.00
2019-05-18T02:11:50.682Z,100.00
2019-05-18T02:14:19.407Z,100.00
2019-05-18T02:16:48.130Z,100.00
2019-05-18T02:19:17.143Z,100.00
2019-05-18T02:21:45.860Z,100.00
2019-05-18T02:24:14.549Z,100.00
2019-05-18T02:26:43.416Z,100.00
2019-05-18T02:29:12.311Z,100.00
2019-05-18T02:31:41.028Z,100.00
2019-05-18T02:34:09.736Z,100.00
2019-05-18T02:36:38.463Z,100.00
2019-05-18T02:39:08.816Z,100.00
2019-05-18T02:41:37.740Z,100.00
2019-05-18T02:44:06.702Z,100.00
2019-05-18T02:46:38.458Z,100.00
2019-05-18T02:49:07.167Z,100.00
2019-05-18T02:51:35.888Z,100.00
2019-05-18T02:54:07.776Z,100.00
2019-05-18T02:56:36.854Z,100.00
2019-05-18T02:59:08.419Z,100.00
2019-05-18T03:01:37.196Z,100.00
2019-05-18T03:04:05.876Z,100.00
2019-05-18T03:06:35.065Z,100.00
2019-05-18T03:09:05.525Z,100.00
2019-05-18T03:11:37.520Z,100.00
2019-05-18T03:14:09.203Z,100.00
2019-05-18T03:16:38.023Z,100.00
2019-05-18T03:19:08.869Z,100.00
2019-05-18T03:21:37.188Z,100.00
2019-05-18T03:24:05.920Z,100.00
2019-05-18T03:26:37.623Z,100.00
2019-05-18T03:29:06.443Z,100.00
2019-05-18T03:31:36.554Z,100.00
2019-05-18T03:34:06.784Z,100.00
2019-05-18T03:36:38.461Z,100.00
2019-05-18T03:39:07.165Z,100.00
2019-05-18T03:41:37.423Z,100.00
2019-05-18T03:44:09.527Z,100.00
2019-05-18T03:46:38.648Z,100.00
2019-05-18T03:49:23.651Z,100.00
2019-05-18T03:51:38.151Z,100.00
2019-05-18T03:54:06.869Z,100.00
2019-05-18T03:56:35.584Z,100.00
2019-05-18T03:59:04.317Z,100.00
2019-05-18T04:01:34.869Z,100.00
2019-05-18T04:04:06.049Z,100.00
2019-05-18T04:06:34.769Z,100.00
2019-05-18T04:11:38.915Z,100.00
2019-05-18T04:14:08.576Z,100.00
2019-05-18T04:16:37.700Z,100.00
2019-05-18T04:19:06.820Z,100.00
2019-05-18T04:21:38.636Z,100.00
2019-05-18T04:24:07.317Z,100.00
2019-05-18T04:26:37.785Z,100.00
2019-05-18T04:29:06.596Z,100.00
2019-05-18T04:31:36.756Z,100.00
2019-05-18T04:34:08.357Z,100.00
2019-05-18T04:36:37.029Z,100.00
2019-05-18T04:39:06.929Z,100.00
2019-05-18T04:41:35.752Z,100.00
2019-05-18T04:44:04.477Z,100.00
2019-05-18T04:46:33.181Z,100.00
2019-05-18T04:49:01.922Z,100.00
2019-05-18T04:51:30.563Z,100.00
2019-05-18T04:53:59.338Z,100.00
2019-05-18T04:56:28.051Z,100.00
2019-05-18T04:58:56.765Z,100.00
2019-05-18T05:01:25.478Z,100.00
2019-05-18T05:03:54.206Z,100.00
2019-05-18T05:06:22.990Z,100.00
2019-05-18T05:08:52.045Z,100.00
2019-05-18T05:11:20.754Z,100.00
2019-05-18T05:13:49.464Z,100.00
2019-05-18T05:16:18.494Z,100.00
2019-05-18T05:18:47.203Z,100.00
2019-05-18T05:21:15.929Z,100.00
2019-05-18T05:23:44.610Z,100.00
2019-05-18T05:26:13.351Z,100.00
2019-05-18T05:28:42.018Z,100.00
2019-05-18T05:31:10.784Z,100.00
2019-05-18T05:33:39.440Z,100.00
2019-05-18T05:36:08.212Z,100.00
2019-05-18T05:38:37.331Z,100.00
2019-05-18T05:41:07.624Z,100.00
2019-05-18T05:43:39.168Z,98.31
2019-05-18T05:46:07.828Z,98.03
2019-05-18T05:48:36.598Z,97.21
2019-05-18T05:51:06.693Z,96.43
2019-05-18T05:53:35.990Z,96.38
2019-05-18T05:56:07.788Z,93.93
2019-05-18T05:58:36.927Z,94.83
2019-05-18T06:01:06.033Z,93.41
2019-05-18T06:03:37.724Z,91.79
2019-05-18T06:06:06.433Z,90.75
2019-05-18T06:08:36.567Z,89.46
2019-05-18T06:11:06.749Z,90.18
2019-05-18T06:13:38.135Z,88.70
2019-05-18T06:16:07.267Z,89.69
2019-05-18T06:18:38.037Z,88.20
2019-05-18T06:21:06.772Z,86.88
2019-05-18T06:23:38.570Z,87.49
2019-05-18T06:26:07.290Z,85.76
2019-05-18T06:28:37.551Z,83.94
2019-05-18T06:31:09.035Z,83.75
2019-05-18T06:33:37.751Z,82.88
2019-05-18T06:36:06.460Z,83.38
2019-05-18T06:38:36.743Z,79.26
2019-05-18T06:41:08.967Z,80.39
2019-05-18T06:43:37.628Z,79.39
2019-05-18T06:46:09.297Z,78.29
2019-05-18T06:48:37.910Z,75.75
2019-05-18T06:51:07.775Z,78.56
2019-05-18T06:53:36.611Z,79.48
2019-05-18T06:56:08.615Z,78.16
2019-05-18T06:58:37.943Z,78.33
2019-05-18T07:01:06.667Z,74.45
2019-05-18T07:03:36.757Z,75.73
2019-05-18T07:06:08.523Z,73.65
2019-05-18T07:08:37.192Z,76.92
2019-05-18T07:11:05.852Z,74.12
2019-05-18T07:13:34.637Z,74.83
2019-05-18T07:16:03.619Z,74.13
2019-05-18T07:18:32.742Z,71.29
2019-05-18T07:21:01.375Z,70.72
2019-05-18T07:23:29.967Z,73.68
2019-05-18T07:25:58.612Z,72.42
2019-05-18T07:28:27.263Z,71.21
2019-05-18T07:30:55.922Z,71.64
2019-05-18T07:33:24.583Z,73.61
2019-05-18T07:35:53.255Z,72.61
2019-05-18T07:38:21.901Z,71.95
2019-05-18T07:40:50.590Z,71.59
2019-05-18T07:43:19.313Z,68.59
2019-05-18T07:45:48.123Z,68.23
2019-05-18T07:48:16.775Z,69.01
2019-05-18T07:50:45.540Z,68.13
2019-05-18T07:53:14.174Z,67.14
2019-05-18T07:55:42.850Z,68.24
2019-05-18T07:58:11.502Z,67.83
2019-05-18T08:00:40.235Z,69.89
2019-05-18T08:03:08.942Z,68.50
2019-05-18T08:05:37.620Z,66.84
2019-05-18T08:08:06.682Z,65.59
2019-05-18T08:10:37.184Z,65.61
2019-05-18T08:13:07.831Z,64.33
2019-05-18T08:15:37.408Z,63.45
2019-05-18T08:18:06.771Z,63.58
2019-05-18T08:20:38.229Z,64.90
2019-05-18T08:23:07.050Z,64.18
2019-05-18T08:25:35.765Z,64.88
2019-05-18T08:28:04.684Z,65.45
2019-05-18T08:30:33.906Z,62.45
2019-05-18T08:33:02.562Z,60.30
2019-05-18T08:35:31.277Z,60.68
2019-05-18T08:38:00.280Z,61.66
2019-05-18T08:40:29.011Z,62.85
2019-05-18T08:42:57.734Z,61.61
2019-05-18T08:45:26.445Z,61.31
2019-05-18T08:47:55.165Z,60.93
2019-05-18T08:50:23.913Z,63.33
2019-05-18T08:52:52.658Z,59.54
2019-05-18T08:55:21.799Z,58.63
2019-05-18T08:57:50.523Z,59.47
2019-05-18T09:00:19.636Z,59.57
2019-05-18T09:02:48.373Z,59.10
2019-05-18T09:05:17.520Z,58.11
2019-05-18T09:07:46.276Z,59.64
2019-05-18T09:10:14.943Z,58.79
2019-05-18T09:12:43.677Z,56.38
2019-05-18T09:15:12.610Z,56.58
2019-05-18T09:17:41.345Z,55.73
2019-05-18T09:20:10.789Z,57.40
2019-05-18T09:22:39.447Z,54.45
2019-05-18T09:25:08.692Z,58.00
2019-05-18T09:27:37.420Z,55.26
2019-05-18T09:30:08.567Z,55.57
2019-05-18T09:32:37.837Z,51.28
2019-05-18T09:35:08.187Z,49.52
2019-05-18T09:37:36.940Z,51.80
2019-05-18T09:40:09.183Z,50.13
2019-05-18T09:42:37.885Z,51.93
2019-05-18T09:45:07.674Z,53.99
2019-05-18T09:47:36.474Z,54.19
2019-05-18T09:50:06.312Z,50.36
2019-05-18T09:52:45.071Z,51.85
2019-05-18T09:55:09.048Z,49.53
2019-05-18T09:57:37.798Z,48.53
2019-05-18T10:00:08.270Z,52.25
2019-05-18T10:02:36.943Z,52.46
2019-05-18T10:05:06.329Z,51.08
2019-05-18T10:07:36.569Z,49.34
2019-05-18T10:10:07.051Z,47.21
2019-05-18T10:12:35.846Z,49.75
2019-05-18T10:15:08.464Z,49.60
2019-05-18T10:17:37.239Z,50.13
2019-05-18T10:20:10.420Z,47.78
2019-05-18T10:22:53.494Z,48.49
2019-05-18T10:25:10.292Z,52.17
2019-05-18T10:27:39.013Z,47.89
2019-05-18T10:30:09.570Z,47.85
2019-05-18T10:32:38.386Z,46.93
2019-05-18T10:35:08.029Z,47.90
2019-05-18T10:37:36.839Z,48.86
2019-05-18T10:40:08.392Z,46.13
2019-05-18T10:42:37.235Z,47.60
2019-05-18T10:45:10.230Z,47.61
2019-05-18T10:47:39.003Z,46.44
2019-05-18T10:50:08.117Z,47.44
2019-05-18T10:52:36.841Z,45.11
2019-05-18T10:55:09.075Z,46.22
2019-05-18T10:57:37.789Z,45.07
2019-05-18T11:00:09.495Z,48.25
2019-05-18T11:02:38.134Z,45.16
2019-05-18T11:05:07.987Z,45.68
2019-05-18T11:07:36.626Z,44.59
2019-05-18T11:10:07.602Z,47.98
2019-05-18T11:12:39.459Z,47.04
2019-05-18T11:15:09.516Z,48.45
2019-05-18T11:17:38.241Z,43.88
2019-05-18T11:20:09.212Z,45.53
2019-05-18T11:22:37.959Z,43.21
2019-05-18T11:25:07.913Z,44.93
2019-05-18T11:27:36.744Z,43.79
2019-05-18T11:30:10.083Z,48.11
2019-05-18T11:32:39.327Z,44.27
2019-05-18T11:35:09.263Z,45.17
2019-05-18T11:37:37.996Z,43.21
2019-05-18T11:40:08.566Z,42.18
2019-05-18T11:42:37.318Z,43.31
2019-05-18T11:45:09.116Z,43.00
2019-05-18T11:47:37.812Z,41.78
2019-05-18T11:50:11.072Z,41.62
2019-05-18T11:52:39.888Z,41.24
2019-05-18T11:55:09.048Z,41.52
2019-05-18T11:57:38.082Z,40.60
2019-05-18T12:00:09.873Z,40.68
2019-05-18T12:02:38.610Z,41.69
2019-05-18T12:05:08.290Z,39.65
2019-05-18T12:07:36.943Z,41.41
2019-05-18T12:10:07.384Z,41.93
2019-05-18T12:12:37.662Z,37.95
2019-05-18T12:15:08.796Z,38.14
2019-05-18T12:17:37.552Z,36.67
2019-05-18T12:20:09.842Z,36.76
2019-05-18T12:22:38.594Z,36.41
2019-05-18T12:25:08.663Z,37.49
2019-05-18T12:27:37.632Z,36.46
2019-05-18T12:30:09.372Z,36.20
2019-05-18T12:32:38.527Z,36.71
2019-05-18T12:35:10.043Z,37.33
2019-05-18T12:37:38.757Z,37.95
2019-05-18T12:40:08.806Z,37.59
2019-05-18T12:42:37.959Z,37.90
2019-05-18T12:45:08.110Z,35.67
2019-05-18T12:47:36.840Z,36.33
2019-05-18T12:50:09.606Z,40.89
2019-05-18T12:52:38.272Z,37.09
2019-05-18T12:55:07.876Z,38.17
2019-05-18T12:57:36.947Z,37.17
2019-05-18T13:00:11.028Z,38.21
2019-05-18T13:02:39.769Z,39.02
2019-05-18T13:05:08.807Z,37.56
2019-05-18T13:07:37.585Z,36.94
2019-05-18T13:10:10.963Z,37.54
2019-05-18T13:12:39.693Z,38.91
2019-05-18T13:15:10.985Z,38.42
2019-05-18T13:17:39.884Z,38.38
2019-05-18T13:20:10.566Z,37.82
2019-05-18T13:22:39.291Z,36.19
2019-05-18T13:25:08.936Z,33.68
2019-05-18T13:27:39.824Z,36.17
2019-05-18T13:30:12.990Z,34.59
2019-05-18T13:32:41.632Z,37.83
2019-05-18T13:35:10.814Z,36.57
2019-05-18T13:37:39.558Z,37.19
2019-05-18T13:40:10.090Z,37.38
2019-05-18T13:42:38.788Z,33.95
2019-05-18T13:45:09.791Z,35.07
2019-05-18T13:47:38.697Z,37.33
2019-05-18T13:50:07.815Z,35.23
2019-05-18T13:52:36.550Z,35.00
2019-05-18T13:55:06.396Z,35.42
2019-05-18T13:57:35.337Z,37.50
2019-05-18T14:00:06.350Z,37.83
2019-05-18T14:02:35.256Z,32.80
2019-05-18T14:05:06.248Z,33.67
2019-05-18T14:07:34.999Z,36.37
2019-05-18T14:10:05.289Z,33.03
2019-05-18T14:12:34.219Z,36.20
2019-05-18T14:15:04.734Z,35.04
2019-05-18T14:17:36.579Z,38.06
2019-05-18T14:20:06.621Z,37.41
2019-05-18T14:22:35.862Z,35.45
2019-05-18T14:25:18.731Z,37.03
2019-05-18T14:27:38.213Z,34.68
2019-05-18T14:30:08.270Z,35.32
2019-05-18T14:32:36.979Z,34.50
2019-05-18T14:35:07.758Z,37.76
2019-05-18T14:37:36.451Z,34.01
2019-05-18T14:40:09.674Z,35.65
2019-05-18T14:42:38.401Z,36.45
2019-05-18T14:45:08.444Z,33.81
2019-05-18T14:47:37.248Z,34.40
2019-05-18T14:50:07.912Z,33.76
2019-05-18T14:52:36.833Z,32.44
2019-05-18T14:55:08.740Z,29.68
2019-05-18T14:57:37.734Z,29.94
2019-05-18T15:00:07.780Z,31.08
2019-05-18T15:02:36.904Z,28.17
2019-05-18T15:05:08.300Z,28.71
2019-05-18T15:07:36.996Z,29.79
2019-05-18T15:10:09.284Z,27.56
2019-05-18T15:12:38.018Z,28.46
2019-05-18T15:15:08.248Z,29.55
2019-05-18T15:17:37.014Z,30.63
2019-05-18T15:20:07.622Z,29.15
2019-05-18T15:22:39.353Z,28.03
2019-05-18T15:25:08.384Z,26.33
2019-05-18T15:27:37.090Z,27.43
2019-05-18T15:30:08.422Z,27.72
2019-05-18T15:32:37.071Z,27.56
2019-05-18T15:35:09.427Z,27.15
2019-05-18T15:37:39.100Z,28.35
2019-05-18T15:40:09.447Z,28.43
2019-05-18T15:42:38.140Z,26.73
2019-05-18T15:45:07.395Z,28.03
2019-05-18T15:47:38.951Z,27.20
2019-05-18T15:50:08.996Z,27.28
2019-05-18T15:52:37.825Z,29.52
2019-05-18T15:55:08.324Z,31.55
2019-05-18T15:57:37.356Z,32.07
2019-05-18T16:00:10.343Z,33.90
2019-05-18T16:02:39.015Z,33.27
2019-05-18T16:05:08.558Z,35.04
2019-05-18T16:07:37.359Z,36.82
2019-05-18T16:10:07.682Z,38.01
2019-05-18T16:12:36.444Z,37.59
2019-05-18T16:15:08.032Z,36.81
2019-05-18T16:17:39.236Z,37.08
2019-05-18T16:20:07.462Z,35.95
2019-05-18T16:22:39.307Z,37.60
2019-05-18T16:25:08.751Z,36.71
2019-05-18T16:27:37.600Z,38.41
2019-05-18T16:30:08.353Z,39.37
2019-05-18T16:32:37.161Z,40.28
2019-05-18T16:35:07.786Z,39.11
2019-05-18T16:37:36.537Z,40.39
2019-05-18T16:40:06.983Z,39.81
2019-05-18T16:42:35.814Z,40.78
2019-05-18T16:45:08.839Z,43.03
2019-05-18T16:47:37.553Z,42.86
2019-05-18T16:50:10.741Z,43.16
2019-05-18T16:52:39.524Z,42.39
2019-05-18T16:55:09.226Z,44.22
2019-05-18T16:57:37.920Z,42.84
2019-05-18T17:00:10.105Z,44.08
2019-05-18T17:02:38.793Z,44.83
2019-05-18T17:05:08.842Z,44.89
2019-05-18T17:07:37.564Z,44.95
2019-05-18T17:10:10.835Z,45.10
2019-05-18T17:12:39.575Z,45.33
2019-05-18T17:15:09.342Z,46.45
2019-05-18T17:17:38.243Z,46.31
2019-05-18T17:20:07.500Z,47.98
2019-05-18T17:22:39.210Z,48.32
2019-05-18T17:25:08.437Z,46.33
2019-05-18T17:27:37.144Z,47.63
2019-05-18T17:30:07.726Z,47.34
2019-05-18T17:32:36.516Z,49.83
2019-05-18T17:35:09.017Z,49.32
2019-05-18T17:37:37.695Z,49.44
2019-05-18T17:40:08.175Z,48.92
2019-05-18T17:42:36.993Z,48.28
2019-05-18T17:45:08.067Z,47.41
2019-05-18T17:47:37.116Z,48.69
2019-05-18T17:50:10.844Z,49.31
2019-05-18T17:52:39.595Z,51.08
2019-05-18T17:55:08.894Z,51.29
2019-05-18T17:57:38.322Z,51.32
2019-05-18T18:00:08.100Z,51.90
2019-05-18T18:02:36.773Z,52.85
2019-05-18T18:05:07.072Z,51.43
2019-05-18T18:07:35.738Z,51.44
2019-05-18T18:10:05.674Z,51.87
2019-05-18T18:12:34.361Z,52.59
2019-05-18T18:15:03.615Z,52.42
2019-05-18T18:17:32.315Z,52.58
2019-05-18T18:20:01.133Z,53.79
2019-05-18T18:22:29.866Z,54.29
2019-05-18T18:24:58.588Z,54.48
2019-05-18T18:27:29.710Z,54.68
2019-05-18T18:29:58.185Z,54.64
2019-05-18T18:32:27.030Z,54.74
2019-05-18T18:34:55.739Z,55.00
2019-05-18T18:37:24.464Z,55.73
2019-05-18T18:39:53.281Z,55.65
2019-05-18T18:42:21.897Z,57.58
2019-05-18T18:44:50.600Z,58.27
2019-05-18T18:47:19.251Z,57.17
2019-05-18T18:49:47.983Z,57.00
2019-05-18T18:52:16.708Z,56.95
2019-05-18T18:54:45.429Z,57.42
2019-05-18T18:57:14.150Z,57.79
2019-05-18T18:59:42.968Z,57.74
2019-05-18T19:02:12.003Z,57.66
2019-05-18T19:04:40.742Z,58.05
2019-05-18T19:07:09.565Z,58.25
2019-05-18T19:09:38.181Z,58.36
2019-05-18T19:12:06.897Z,58.48
2019-05-18T19:14:38.386Z,58.60
2019-05-18T19:17:07.098Z,58.58
2019-05-18T19:19:35.920Z,58.92
2019-05-18T19:22:05.773Z,59.46
2019-05-18T19:24:34.487Z,60.22
2019-05-18T19:27:03.192Z,60.58
2019-05-18T19:29:31.927Z,61.36
2019-05-18T19:32:00.634Z,61.55
2019-05-18T19:34:29.361Z,62.08
2019-05-18T19:36:58.069Z,62.32
2019-05-18T19:39:26.783Z,62.64
2019-05-18T19:41:55.404Z,63.09
2019-05-18T19:44:24.145Z,63.85
2019-05-18T19:46:52.899Z,63.92
2019-05-18T19:49:21.695Z,63.85
2019-05-18T19:51:50.382Z,64.72
2019-05-18T19:54:19.097Z,65.47
2019-05-18T19:56:47.827Z,66.28
2019-05-18T19:59:16.531Z,66.08
2019-05-18T20:01:45.242Z,65.99
2019-05-18T20:04:14.080Z,66.29
2019-05-18T20:06:42.928Z,66.23
2019-05-18T20:09:11.694Z,66.42
2019-05-18T20:11:40.731Z,67.27
2019-05-18T20:14:09.435Z,67.44
2019-05-18T20:16:38.240Z,67.72
2019-05-18T20:19:07.666Z,68.25
2019-05-18T20:21:36.385Z,68.98
2019-05-18T20:24:06.532Z,69.59
2019-05-18T20:26:36.785Z,70.18
2019-05-18T20:29:08.470Z,70.55
2019-05-18T20:31:37.316Z,70.55
2019-05-18T20:34:07.447Z,70.14
2019-05-18T20:36:39.274Z,70.52
2019-05-18T20:39:08.031Z,71.40
2019-05-18T20:41:36.800Z,71.88
2019-05-18T20:44:06.256Z,72.13
2019-05-18T20:46:35.042Z,72.59
2019-05-18T20:49:06.932Z,73.47
2019-05-18T20:51:35.642Z,74.93
2019-05-18T20:54:04.587Z,75.32
2019-05-18T20:56:33.301Z,76.93
2019-05-18T20:59:02.396Z,77.51
2019-05-18T21:01:31.116Z,78.28
2019-05-18T21:03:59.842Z,77.66
2019-05-18T21:06:28.669Z,77.71
2019-05-18T21:08:57.378Z,77.55
2019-05-18T21:11:26.113Z,77.61
2019-05-18T21:13:57.659Z,78.43
2019-05-18T21:16:25.288Z,78.72
2019-05-18T21:18:54.190Z,78.91
2019-05-18T21:21:25.562Z,78.66
2019-05-18T21:23:53.561Z,78.86
2019-05-18T21:26:22.688Z,79.06
2019-05-18T21:28:56.505Z,79.69
2019-05-18T21:31:21.977Z,80.15
2019-05-18T21:33:50.688Z,79.62
2019-05-18T21:36:19.637Z,80.58
2019-05-18T21:38:48.428Z,80.65
2019-05-18T21:41:17.044Z,80.78
2019-05-18T21:43:45.759Z,81.43
2019-05-18T21:46:14.470Z,82.29
2019-05-18T21:48:43.193Z,83.80
2019-05-18T21:51:11.816Z,84.42
2019-05-18T21:53:40.531Z,84.76
2019-05-18T21:56:09.263Z,85.14
2019-05-18T21:58:37.989Z,85.18
2019-05-18T22:01:07.212Z,85.56
2019-05-18T22:03:37.372Z,85.85
2019-05-18T22:06:07.838Z,86.30
2019-05-18T22:08:36.652Z,86.98
2019-05-18T22:11:07.125Z,87.23
2019-05-18T22:13:35.820Z,87.72
2019-05-18T22:16:07.202Z,87.82
2019-05-18T22:18:35.936Z,87.62
2019-05-18T22:21:07.599Z,88.21
2019-05-18T22:23:39.205Z,88.26
2019-05-18T22:26:08.038Z,88.23
2019-05-18T22:28:36.744Z,87.26
2019-05-18T22:31:08.450Z,85.92
2019-05-18T22:33:37.192Z,85.48
2019-05-18T22:36:07.134Z,85.96
2019-05-18T22:38:35.803Z,86.51
2019-05-18T22:41:04.607Z,86.60
2019-05-18T22:43:33.861Z,86.16
2019-05-18T22:46:02.600Z,84.83
2019-05-18T22:48:41.028Z,84.82
2019-05-18T22:51:01.691Z,84.23
2019-05-18T22:53:30.430Z,83.39
2019-05-18T22:55:59.015Z,83.45
2019-05-18T22:58:27.787Z,84.44
2019-05-18T23:00:56.511Z,85.59
2019-05-18T23:03:25.339Z,85.58
2019-05-18T23:05:53.995Z,86.16
2019-05-18T23:08:22.796Z,85.96
2019-05-18T23:10:51.488Z,85.41
2019-05-18T23:13:20.124Z,85.22
2019-05-18T23:15:48.726Z,85.28
2019-05-18T23:18:18.368Z,85.75
2019-05-18T23:20:47.025Z,86.10
2019-05-18T23:23:15.698Z,85.48
2019-05-18T23:25:44.309Z,86.38
2019-05-18T23:28:13.113Z,86.53
2019-05-18T23:30:41.834Z,87.19
2019-05-18T23:33:10.543Z,88.51
2019-05-18T23:35:39.205Z,88.41
2019-05-18T23:38:07.978Z,88.60
2019-05-18T23:40:36.680Z,88.91
2019-05-18T23:43:05.704Z,89.48
2019-05-18T23:45:34.520Z,90.05
2019-05-18T23:48:03.216Z,90.83
2019-05-18T23:50:31.851Z,91.51
2019-05-18T23:53:00.586Z,91.95
2019-05-18T23:55:29.304Z,92.13
2019-05-18T23:58:05.294Z,92.41
